sensor_id;sensor_type;location;lat;lon;timestamp;P1;durP1;ratioP1;P2;durP2;ratioP2
66581;SDS011;53438;48.898;2.308;2022-12-16T00:01:06;20.05;;;9.35;;
66581;SDS011;53438;48.898;2.308;2022-12-16T00:03:46;17.63;;;10.18;;
66581;SDS011;53438;48.898;2.308;2022-12-16T00:06:12;23.20;;;10.17;;
66581;SDS011;53438;48.898;2.308;2022-12-16T00:08:38;19.27;;;10.18;;
66581;SDS011;53438;48.898;2.308;2022-12-16T00:11:04;22.13;;;10.60;;
66581;SDS011;53438;48.898;2.308;2022-12-16T00:13:32;23.30;;;10.23;;
66581;SDS011;53438;48.898;2.308;2022-12-16T00:15:58;18.73;;;10.18;;
66581;SDS011;53438;48.898;2.308;2022-12-16T00:18:24;23.35;;;10.30;;
66581;SDS011;53438;48.898;2.308;2022-12-16T00:20:51;18.53;;;9.53;;
66581;SDS011;53438;48.898;2.308;2022-12-16T00:23:17;21.50;;;10.10;;
66581;SDS011;53438;48.898;2.308;2022-12-16T00:25:44;19.95;;;10.98;;
66581;SDS011;53438;48.898;2.308;2022-12-16T00:28:12;23.00;;;11.68;;
66581;SDS011;53438;48.898;2.308;2022-12-16T00:30:38;23.27;;;11.70;;
66581;SDS011;53438;48.898;2.308;2022-12-16T00:33:04;20.27;;;9.85;;
66581;SDS011;53438;48.898;2.308;2022-12-16T00:35:30;19.23;;;10.15;;
66581;SDS011;53438;48.898;2.308;2022-12-16T00:37:56;21.53;;;10.13;;
66581;SDS011;53438;48.898;2.308;2022-12-16T00:40:21;24.77;;;10.65;;
66581;SDS011;53438;48.898;2.308;2022-12-16T00:42:47;17.77;;;10.07;;
66581;SDS011;53438;48.898;2.308;2022-12-16T00:45:12;20.40;;;9.73;;
66581;SDS011;53438;48.898;2.308;2022-12-16T00:47:37;19.50;;;10.40;;
66581;SDS011;53438;48.898;2.308;2022-12-16T00:50:03;22.93;;;10.83;;
66581;SDS011;53438;48.898;2.308;2022-12-16T00:52:28;23.20;;;10.65;;
66581;SDS011;53438;48.898;2.308;2022-12-16T00:54:54;22.80;;;10.87;;
66581;SDS011;53438;48.898;2.308;2022-12-16T00:57:19;21.47;;;10.73;;
66581;SDS011;53438;48.898;2.308;2022-12-16T00:59:45;23.92;;;10.20;;
66581;SDS011;53438;48.898;2.308;2022-12-16T04:01:07;30.08;;;15.27;;
66581;SDS011;53438;48.898;2.308;2022-12-16T04:03:33;27.88;;;14.02;;
66581;SDS011;53438;48.898;2.308;2022-12-16T04:05:59;31.00;;;14.37;;
66581;SDS011;53438;48.898;2.308;2022-12-16T04:08:25;29.17;;;13.75;;
66581;SDS011;53438;48.898;2.308;2022-12-16T04:10:51;27.37;;;14.27;;
66581;SDS011;53438;48.898;2.308;2022-12-16T04:13:35;27.52;;;14.13;;
66581;SDS011;53438;48.898;2.308;2022-12-16T04:16:19;24.88;;;13.30;;
66581;SDS011;53438;48.898;2.308;2022-12-16T04:19:03;27.13;;;14.23;;
66581;SDS011;53438;48.898;2.308;2022-12-16T04:21:47;28.00;;;13.15;;
66581;SDS011;53438;48.898;2.308;2022-12-16T04:24:31;22.90;;;11.57;;
66581;SDS011;53438;48.898;2.308;2022-12-16T04:26:57;29.60;;;13.68;;
66581;SDS011;53438;48.898;2.308;2022-12-16T04:29:42;27.38;;;14.27;;
66581;SDS011;53438;48.898;2.308;2022-12-16T04:32:26;26.98;;;12.68;;
66581;SDS011;53438;48.898;2.308;2022-12-16T04:35:12;29.45;;;11.10;;
66581;SDS011;53438;48.898;2.308;2022-12-16T04:37:56;27.40;;;13.18;;
66581;SDS011;53438;48.898;2.308;2022-12-16T04:40:40;26.33;;;13.52;;
66581;SDS011;53438;48.898;2.308;2022-12-16T04:43:24;27.47;;;13.80;;
66581;SDS011;53438;48.898;2.308;2022-12-16T04:46:08;26.35;;;13.32;;
66581;SDS011;53438;48.898;2.308;2022-12-16T04:48:52;25.25;;;13.20;;
66581;SDS011;53438;48.898;2.308;2022-12-16T04:51:36;26.08;;;12.50;;
66581;SDS011;53438;48.898;2.308;2022-12-16T04:54:20;28.27;;;13.20;;
66581;SDS011;53438;48.898;2.308;2022-12-16T04:57:04;23.77;;;12.87;;
66581;SDS011;53438;48.898;2.308;2022-12-16T04:59:48;27.13;;;13.18;;
66581;SDS011;53438;48.898;2.308;2022-12-16T05:02:32;27.02;;;12.98;;
66581;SDS011;53438;48.898;2.308;2022-12-16T05:05:16;27.25;;;12.98;;
66581;SDS011;53438;48.898;2.308;2022-12-16T05:08:00;27.23;;;12.45;;
66581;SDS011;53438;48.898;2.308;2022-12-16T05:10:44;22.47;;;10.43;;
66581;SDS011;53438;48.898;2.308;2022-12-16T05:13:28;22.70;;;10.80;;
66581;SDS011;53438;48.898;2.308;2022-12-16T05:16:12;26.67;;;12.35;;
66581;SDS011;53438;48.898;2.308;2022-12-16T05:18:56;24.23;;;10.80;;
66581;SDS011;53438;48.898;2.308;2022-12-16T05:21:39;24.00;;;10.65;;
66581;SDS011;53438;48.898;2.308;2022-12-16T05:24:23;24.20;;;11.00;;
66581;SDS011;53438;48.898;2.308;2022-12-16T05:27:24;20.02;;;10.90;;
66581;SDS011;53438;48.898;2.308;2022-12-16T05:30:08;26.85;;;12.00;;
66581;SDS011;53438;48.898;2.308;2022-12-16T05:32:52;22.80;;;11.05;;
66581;SDS011;53438;48.898;2.308;2022-12-16T05:35:36;28.53;;;12.07;;
66581;SDS011;53438;48.898;2.308;2022-12-16T05:38:20;20.83;;;10.88;;
66581;SDS011;53438;48.898;2.308;2022-12-16T05:41:04;21.25;;;10.07;;
66581;SDS011;53438;48.898;2.308;2022-12-16T05:43:48;24.30;;;11.15;;
66581;SDS011;53438;48.898;2.308;2022-12-16T05:46:32;24.00;;;10.23;;
66581;SDS011;53438;48.898;2.308;2022-12-16T05:49:16;20.63;;;10.23;;
66581;SDS011;53438;48.898;2.308;2022-12-16T05:52:00;21.25;;;10.75;;
66581;SDS011;53438;48.898;2.308;2022-12-16T05:54:44;26.08;;;10.48;;
66581;SDS011;53438;48.898;2.308;2022-12-16T05:57:28;22.92;;;9.60;;
66581;SDS011;53438;48.898;2.308;2022-12-16T06:00:12;22.27;;;10.60;;
66581;SDS011;53438;48.898;2.308;2022-12-16T06:02:56;28.03;;;10.60;;
66581;SDS011;53438;48.898;2.308;2022-12-16T06:05:40;22.50;;;10.27;;
66581;SDS011;53438;48.898;2.308;2022-12-16T06:08:24;25.67;;;11.35;;
66581;SDS011;53438;48.898;2.308;2022-12-16T06:11:08;22.80;;;9.65;;
66581;SDS011;53438;48.898;2.308;2022-12-16T06:13:52;22.30;;;11.27;;
66581;SDS011;53438;48.898;2.308;2022-12-16T06:16:36;23.80;;;10.63;;
66581;SDS011;53438;48.898;2.308;2022-12-16T06:19:20;21.42;;;10.32;;
66581;SDS011;53438;48.898;2.308;2022-12-16T06:22:04;20.98;;;9.50;;
66581;SDS011;53438;48.898;2.308;2022-12-16T06:24:48;20.98;;;11.32;;
66581;SDS011;53438;48.898;2.308;2022-12-16T06:27:32;22.37;;;10.20;;
66581;SDS011;53438;48.898;2.308;2022-12-16T06:30:16;19.05;;;10.60;;
66581;SDS011;53438;48.898;2.308;2022-12-16T06:33:00;23.73;;;10.38;;
66581;SDS011;53438;48.898;2.308;2022-12-16T06:35:44;27.10;;;11.43;;
66581;SDS011;53438;48.898;2.308;2022-12-16T06:38:28;22.73;;;10.60;;
66581;SDS011;53438;48.898;2.308;2022-12-16T06:41:12;25.17;;;10.73;;
66581;SDS011;53438;48.898;2.308;2022-12-16T06:43:56;18.80;;;10.10;;
66581;SDS011;53438;48.898;2.308;2022-12-16T06:46:40;22.23;;;10.40;;
66581;SDS011;53438;48.898;2.308;2022-12-16T06:49:24;27.83;;;11.30;;
66581;SDS011;53438;48.898;2.308;2022-12-16T06:52:08;22.20;;;11.05;;
66581;SDS011;53438;48.898;2.308;2022-12-16T06:54:55;22.17;;;10.57;;
66581;SDS011;53438;48.898;2.308;2022-12-16T06:57:39;20.27;;;9.60;;
66581;SDS011;53438;48.898;2.308;2022-12-16T07:00:23;22.00;;;11.07;;
66581;SDS011;53438;48.898;2.308;2022-12-16T07:03:07;22.98;;;11.30;;
66581;SDS011;53438;48.898;2.308;2022-12-16T07:05:51;26.02;;;11.07;;
66581;SDS011;53438;48.898;2.308;2022-12-16T07:08:36;25.47;;;12.13;;
66581;SDS011;53438;48.898;2.308;2022-12-16T07:11:20;24.58;;;11.10;;
66581;SDS011;53438;48.898;2.308;2022-12-16T07:14:04;29.80;;;12.43;;
66581;SDS011;53438;48.898;2.308;2022-12-16T07:16:48;26.10;;;12.13;;
66581;SDS011;53438;48.898;2.308;2022-12-16T07:19:32;22.98;;;12.30;;
66581;SDS011;53438;48.898;2.308;2022-12-16T07:22:16;24.07;;;11.50;;
66581;SDS011;53438;48.898;2.308;2022-12-16T07:25:00;26.35;;;11.32;;
66581;SDS011;53438;48.898;2.308;2022-12-16T07:27:45;27.05;;;11.73;;
66581;SDS011;53438;48.898;2.308;2022-12-16T07:30:29;24.88;;;12.25;;
66581;SDS011;53438;48.898;2.308;2022-12-16T07:33:13;24.63;;;12.02;;
66581;SDS011;53438;48.898;2.308;2022-12-16T07:35:57;30.67;;;12.87;;
66581;SDS011;53438;48.898;2.308;2022-12-16T07:38:41;28.35;;;12.23;;
66581;SDS011;53438;48.898;2.308;2022-12-16T07:41:25;25.42;;;12.13;;
66581;SDS011;53438;48.898;2.308;2022-12-16T07:44:09;26.48;;;11.93;;
66581;SDS011;53438;48.898;2.308;2022-12-16T07:46:53;30.20;;;12.80;;
66581;SDS011;53438;48.898;2.308;2022-12-16T07:49:38;21.53;;;10.50;;
66581;SDS011;53438;48.898;2.308;2022-12-16T07:52:21;20.40;;;10.63;;
66581;SDS011;53438;48.898;2.308;2022-12-16T07:55:05;31.30;;;11.52;;
66581;SDS011;53438;48.898;2.308;2022-12-16T07:57:50;22.25;;;11.30;;
66581;SDS011;53438;48.898;2.308;2022-12-16T08:00:34;32.72;;;12.80;;
66581;SDS011;53438;48.898;2.308;2022-12-16T08:03:18;27.87;;;10.87;;
66581;SDS011;53438;48.898;2.308;2022-12-16T08:06:02;28.55;;;12.32;;
66581;SDS011;53438;48.898;2.308;2022-12-16T08:08:46;22.63;;;11.68;;
66581;SDS011;53438;48.898;2.308;2022-12-16T08:11:30;26.10;;;12.68;;
66581;SDS011;53438;48.898;2.308;2022-12-16T08:14:14;25.33;;;11.27;;
66581;SDS011;53438;48.898;2.308;2022-12-16T08:16:58;31.60;;;12.50;;
66581;SDS011;53438;48.898;2.308;2022-12-16T08:19:41;27.20;;;12.93;;
66581;SDS011;53438;48.898;2.308;2022-12-16T08:22:26;24.23;;;12.10;;
66581;SDS011;53438;48.898;2.308;2022-12-16T08:25:09;23.48;;;11.45;;
66581;SDS011;53438;48.898;2.308;2022-12-16T08:27:54;27.63;;;12.82;;
66581;SDS011;53438;48.898;2.308;2022-12-16T08:30:38;28.47;;;12.90;;
66581;SDS011;53438;48.898;2.308;2022-12-16T08:33:23;23.85;;;13.23;;
66581;SDS011;53438;48.898;2.308;2022-12-16T08:36:07;30.52;;;12.95;;
66581;SDS011;53438;48.898;2.308;2022-12-16T08:38:51;26.42;;;13.32;;
66581;SDS011;53438;48.898;2.308;2022-12-16T08:41:35;25.83;;;13.32;;
66581;SDS011;53438;48.898;2.308;2022-12-16T08:44:19;38.37;;;14.53;;
66581;SDS011;53438;48.898;2.308;2022-12-16T08:47:03;31.45;;;13.45;;
66581;SDS011;53438;48.898;2.308;2022-12-16T08:49:47;29.55;;;13.63;;
66581;SDS011;53438;48.898;2.308;2022-12-16T08:52:32;35.72;;;14.75;;
66581;SDS011;53438;48.898;2.308;2022-12-16T08:55:16;32.60;;;14.20;;
66581;SDS011;53438;48.898;2.308;2022-12-16T08:58:00;33.43;;;14.17;;
66581;SDS011;53438;48.898;2.308;2022-12-16T09:00:44;26.85;;;13.05;;
66581;SDS011;53438;48.898;2.308;2022-12-16T09:03:28;33.13;;;13.18;;
66581;SDS011;53438;48.898;2.308;2022-12-16T09:06:12;29.92;;;13.10;;
66581;SDS011;53438;48.898;2.308;2022-12-16T09:08:56;29.45;;;12.98;;
66581;SDS011;53438;48.898;2.308;2022-12-16T09:11:40;26.90;;;14.33;;
66581;SDS011;53438;48.898;2.308;2022-12-16T09:14:24;36.08;;;14.43;;
66581;SDS011;53438;48.898;2.308;2022-12-16T09:17:08;29.63;;;14.23;;
66581;SDS011;53438;48.898;2.308;2022-12-16T09:19:51;29.73;;;14.10;;
66581;SDS011;53438;48.898;2.308;2022-12-16T09:22:35;28.30;;;13.38;;
66581;SDS011;53438;48.898;2.308;2022-12-16T09:25:19;29.83;;;14.23;;
66581;SDS011;53438;48.898;2.308;2022-12-16T09:28:03;27.33;;;14.73;;
66581;SDS011;53438;48.898;2.308;2022-12-16T09:30:47;29.48;;;14.60;;
66581;SDS011;53438;48.898;2.308;2022-12-16T09:33:31;31.15;;;15.57;;
66581;SDS011;53438;48.898;2.308;2022-12-16T09:36:15;24.33;;;13.27;;
66581;SDS011;53438;48.898;2.308;2022-12-16T09:38:59;37.10;;;15.27;;
66581;SDS011;53438;48.898;2.308;2022-12-16T09:41:44;28.60;;;14.48;;
66581;SDS011;53438;48.898;2.308;2022-12-16T09:47:44;25.42;;;14.02;;
66581;SDS011;53438;48.898;2.308;2022-12-16T09:50:36;32.35;;;13.98;;
66581;SDS011;53438;48.898;2.308;2022-12-16T09:53:22;25.93;;;13.83;;
66581;SDS011;53438;48.898;2.308;2022-12-16T09:56:08;28.98;;;13.52;;
66581;SDS011;53438;48.898;2.308;2022-12-16T09:59:00;26.42;;;12.95;;
66581;SDS011;53438;48.898;2.308;2022-12-16T10:01:48;24.05;;;13.05;;
66581;SDS011;53438;48.898;2.308;2022-12-16T10:04:32;29.52;;;13.07;;
66581;SDS011;53438;48.898;2.308;2022-12-16T10:07:17;26.97;;;12.53;;
66581;SDS011;53438;48.898;2.308;2022-12-16T10:10:16;26.65;;;13.07;;
66581;SDS011;53438;48.898;2.308;2022-12-16T10:31:00;28.33;;;13.50;;
66581;SDS011;53438;48.898;2.308;2022-12-16T10:33:48;23.90;;;11.00;;
66581;SDS011;53438;48.898;2.308;2022-12-16T10:36:33;24.90;;;13.77;;
66581;SDS011;53438;48.898;2.308;2022-12-16T10:42:20;29.33;;;15.15;;
66581;SDS011;53438;48.898;2.308;2022-12-16T10:45:50;25.90;;;14.00;;
66581;SDS011;53438;48.898;2.308;2022-12-16T10:48:26;29.17;;;14.55;;
66581;SDS011;53438;48.898;2.308;2022-12-16T10:51:30;25.20;;;13.73;;
66581;SDS011;53438;48.898;2.308;2022-12-16T10:57:07;28.23;;;13.15;;
66581;SDS011;53438;48.898;2.308;2022-12-16T11:03:26;27.50;;;13.35;;
66581;SDS011;53438;48.898;2.308;2022-12-16T11:06:14;30.03;;;14.13;;
66581;SDS011;53438;48.898;2.308;2022-12-16T11:09:27;36.50;;;16.65;;
66581;SDS011;53438;48.898;2.308;2022-12-16T11:12:19;34.35;;;16.92;;
66581;SDS011;53438;48.898;2.308;2022-12-16T11:15:31;35.25;;;17.52;;
66581;SDS011;53438;48.898;2.308;2022-12-16T11:18:16;43.55;;;18.38;;
66581;SDS011;53438;48.898;2.308;2022-12-16T11:21:15;41.30;;;17.40;;
66581;SDS011;53438;48.898;2.308;2022-12-16T11:24:11;38.05;;;16.90;;
66581;SDS011;53438;48.898;2.308;2022-12-16T11:27:45;41.10;;;17.90;;
66581;SDS011;53438;48.898;2.308;2022-12-16T11:30:14;38.45;;;16.05;;
66581;SDS011;53438;48.898;2.308;2022-12-16T11:33:01;37.25;;;17.38;;
66581;SDS011;53438;48.898;2.308;2022-12-16T11:35:52;36.70;;;17.03;;
66581;SDS011;53438;48.898;2.308;2022-12-16T11:38:48;31.40;;;15.13;;
66581;SDS011;53438;48.898;2.308;2022-12-16T11:41:36;32.28;;;15.77;;
66581;SDS011;53438;48.898;2.308;2022-12-16T11:47:37;39.00;;;15.95;;
66581;SDS011;53438;48.898;2.308;2022-12-16T11:50:25;32.93;;;13.57;;
66581;SDS011;53438;48.898;2.308;2022-12-16T11:53:21;31.65;;;13.68;;
66581;SDS011;53438;48.898;2.308;2022-12-16T11:56:38;30.42;;;13.80;;
66581;SDS011;53438;48.898;2.308;2022-12-16T12:02:13;30.85;;;13.45;;
66581;SDS011;53438;48.898;2.308;2022-12-16T12:05:01;26.77;;;12.27;;
66581;SDS011;53438;48.898;2.308;2022-12-16T12:10:59;26.40;;;12.73;;
66581;SDS011;53438;48.898;2.308;2022-12-16T12:14:02;30.60;;;12.52;;
66581;SDS011;53438;48.898;2.308;2022-12-16T12:23:31;32.58;;;12.95;;
66581;SDS011;53438;48.898;2.308;2022-12-16T12:26:24;29.75;;;12.40;;
66581;SDS011;53438;48.898;2.308;2022-12-16T12:42:00;31.55;;;13.27;;
66581;SDS011;53438;48.898;2.308;2022-12-16T12:48:06;25.67;;;11.93;;
66581;SDS011;53438;48.898;2.308;2022-12-16T12:57:10;27.65;;;13.30;;
66581;SDS011;53438;48.898;2.308;2022-12-16T12:59:59;29.20;;;12.45;;
66581;SDS011;53438;48.898;2.308;2022-12-16T13:02:54;31.70;;;12.35;;
66581;SDS011;53438;48.898;2.308;2022-12-16T13:05:54;31.93;;;13.00;;
66581;SDS011;53438;48.898;2.308;2022-12-16T13:11:36;27.95;;;13.15;;
66581;SDS011;53438;48.898;2.308;2022-12-16T13:17:14;31.10;;;12.02;;
66581;SDS011;53438;48.898;2.308;2022-12-16T13:26:12;29.15;;;12.25;;
66581;SDS011;53438;48.898;2.308;2022-12-16T13:35:04;34.70;;;12.63;;
66581;SDS011;53438;48.898;2.308;2022-12-16T13:40:55;38.75;;;13.95;;
66581;SDS011;53438;48.898;2.308;2022-12-16T13:46:42;29.38;;;13.70;;
66581;SDS011;53438;48.898;2.308;2022-12-16T13:52:45;32.45;;;14.13;;
66581;SDS011;53438;48.898;2.308;2022-12-16T13:58:50;29.63;;;13.30;;
66581;SDS011;53438;48.898;2.308;2022-12-16T14:01:37;28.10;;;13.13;;
66581;SDS011;53438;48.898;2.308;2022-12-16T14:04:36;32.27;;;13.63;;
66581;SDS011;53438;48.898;2.308;2022-12-16T14:07:23;28.40;;;12.13;;
66581;SDS011;53438;48.898;2.308;2022-12-16T14:13:24;29.58;;;13.38;;
66581;SDS011;53438;48.898;2.308;2022-12-16T14:19:36;27.43;;;11.00;;
66581;SDS011;53438;48.898;2.308;2022-12-16T14:25:21;25.80;;;12.48;;
66581;SDS011;53438;48.898;2.308;2022-12-16T14:28:07;28.75;;;11.43;;
66581;SDS011;53438;48.898;2.308;2022-12-16T14:31:13;26.20;;;11.32;;
66581;SDS011;53438;48.898;2.308;2022-12-16T14:33:57;23.93;;;11.63;;
66581;SDS011;53438;48.898;2.308;2022-12-16T14:36:44;31.77;;;12.00;;
66581;SDS011;53438;48.898;2.308;2022-12-16T14:39:29;27.58;;;12.07;;
66581;SDS011;53438;48.898;2.308;2022-12-16T14:42:16;28.95;;;12.35;;
66581;SDS011;53438;48.898;2.308;2022-12-16T14:45:03;30.25;;;12.68;;
66581;SDS011;53438;48.898;2.308;2022-12-16T14:47:48;33.80;;;13.83;;
66581;SDS011;53438;48.898;2.308;2022-12-16T14:50:33;31.77;;;14.55;;
66581;SDS011;53438;48.898;2.308;2022-12-16T14:53:22;28.77;;;13.32;;
66581;SDS011;53438;48.898;2.308;2022-12-16T15:01:52;29.67;;;12.70;;
66581;SDS011;53438;48.898;2.308;2022-12-16T15:04:39;31.30;;;13.70;;
66581;SDS011;53438;48.898;2.308;2022-12-16T15:07:23;32.28;;;14.40;;
66581;SDS011;53438;48.898;2.308;2022-12-16T15:10:12;28.90;;;14.18;;
66581;SDS011;53438;48.898;2.308;2022-12-16T15:12:57;32.55;;;14.02;;
66581;SDS011;53438;48.898;2.308;2022-12-16T15:15:45;27.50;;;12.97;;
66581;SDS011;53438;48.898;2.308;2022-12-16T15:18:32;34.28;;;12.95;;
66581;SDS011;53438;48.898;2.308;2022-12-16T15:21:20;29.40;;;13.90;;
66581;SDS011;53438;48.898;2.308;2022-12-16T15:24:08;31.58;;;13.25;;
66581;SDS011;53438;48.898;2.308;2022-12-16T15:27:13;29.77;;;12.48;;
66581;SDS011;53438;48.898;2.308;2022-12-16T15:33:31;26.38;;;10.90;;
66581;SDS011;53438;48.898;2.308;2022-12-16T15:36:25;19.75;;;9.27;;
66581;SDS011;53438;48.898;2.308;2022-12-16T15:42:16;18.88;;;8.77;;
66581;SDS011;53438;48.898;2.308;2022-12-16T15:48:25;19.83;;;8.70;;
66581;SDS011;53438;48.898;2.308;2022-12-16T15:51:19;17.95;;;8.68;;
66581;SDS011;53438;48.898;2.308;2022-12-16T15:54:04;19.13;;;8.90;;
66581;SDS011;53438;48.898;2.308;2022-12-16T15:56:48;21.38;;;9.73;;
66581;SDS011;53438;48.898;2.308;2022-12-16T15:59:35;22.87;;;10.00;;
66581;SDS011;53438;48.898;2.308;2022-12-16T16:02:34;20.08;;;10.25;;
66581;SDS011;53438;48.898;2.308;2022-12-16T16:05:19;28.33;;;11.45;;
66581;SDS011;53438;48.898;2.308;2022-12-16T16:08:05;23.58;;;10.25;;
66581;SDS011;53438;48.898;2.308;2022-12-16T16:10:49;25.92;;;11.02;;
66581;SDS011;53438;48.898;2.308;2022-12-16T16:13:33;22.27;;;10.30;;
66581;SDS011;53438;48.898;2.308;2022-12-16T16:16:17;25.88;;;10.18;;
66581;SDS011;53438;48.898;2.308;2022-12-16T16:19:20;22.33;;;10.93;;
66581;SDS011;53438;48.898;2.308;2022-12-16T16:22:09;22.40;;;11.05;;
66581;SDS011;53438;48.898;2.308;2022-12-16T16:24:55;24.38;;;10.82;;
66581;SDS011;53438;48.898;2.308;2022-12-16T16:27:38;24.13;;;11.50;;
66581;SDS011;53438;48.898;2.308;2022-12-16T16:30:27;29.20;;;12.60;;
66581;SDS011;53438;48.898;2.308;2022-12-16T16:33:11;29.40;;;13.15;;
66581;SDS011;53438;48.898;2.308;2022-12-16T16:35:54;28.25;;;12.27;;
66581;SDS011;53438;48.898;2.308;2022-12-16T16:38:38;27.52;;;13.25;;
66581;SDS011;53438;48.898;2.308;2022-12-16T16:41:22;27.03;;;12.97;;
66581;SDS011;53438;48.898;2.308;2022-12-16T16:44:11;28.92;;;13.77;;
66581;SDS011;53438;48.898;2.308;2022-12-16T16:46:55;29.67;;;13.70;;
66581;SDS011;53438;48.898;2.308;2022-12-16T16:49:40;28.80;;;12.93;;
66581;SDS011;53438;48.898;2.308;2022-12-16T16:52:26;25.48;;;12.63;;
66581;SDS011;53438;48.898;2.308;2022-12-16T16:55:18;30.27;;;13.83;;
66581;SDS011;53438;48.898;2.308;2022-12-16T16:58:04;31.65;;;12.57;;
66581;SDS011;53438;48.898;2.308;2022-12-16T17:00:50;29.50;;;13.15;;
66581;SDS011;53438;48.898;2.308;2022-12-16T17:03:34;31.33;;;14.73;;
66581;SDS011;53438;48.898;2.308;2022-12-16T17:06:18;28.92;;;13.38;;
66581;SDS011;53438;48.898;2.308;2022-12-16T17:09:02;31.40;;;15.10;;
66581;SDS011;53438;48.898;2.308;2022-12-16T17:11:48;38.05;;;15.02;;
66581;SDS011;53438;48.898;2.308;2022-12-16T17:14:32;29.50;;;13.75;;
66581;SDS011;53438;48.898;2.308;2022-12-16T17:17:16;34.20;;;14.10;;
66581;SDS011;53438;48.898;2.308;2022-12-16T17:19:59;36.22;;;13.52;;
66581;SDS011;53438;48.898;2.308;2022-12-16T17:22:43;32.60;;;13.97;;
66581;SDS011;53438;48.898;2.308;2022-12-16T17:25:27;31.73;;;13.07;;
66581;SDS011;53438;48.898;2.308;2022-12-16T17:28:11;29.88;;;15.30;;
66581;SDS011;53438;48.898;2.308;2022-12-16T17:31:03;29.95;;;14.63;;
66581;SDS011;53438;48.898;2.308;2022-12-16T17:33:47;33.28;;;14.70;;
66581;SDS011;53438;48.898;2.308;2022-12-16T17:36:31;31.30;;;14.00;;
66581;SDS011;53438;48.898;2.308;2022-12-16T17:39:15;30.75;;;14.20;;
66581;SDS011;53438;48.898;2.308;2022-12-16T17:41:59;30.30;;;13.45;;
66581;SDS011;53438;48.898;2.308;2022-12-16T17:44:43;39.75;;;15.23;;
66581;SDS011;53438;48.898;2.308;2022-12-16T17:47:27;30.83;;;13.82;;
66581;SDS011;53438;48.898;2.308;2022-12-16T17:50:11;34.30;;;14.87;;
66581;SDS011;53438;48.898;2.308;2022-12-16T17:52:55;34.97;;;15.15;;
66581;SDS011;53438;48.898;2.308;2022-12-16T17:55:41;30.25;;;14.18;;
66581;SDS011;53438;48.898;2.308;2022-12-16T17:58:32;31.63;;;14.10;;
66581;SDS011;53438;48.898;2.308;2022-12-16T18:01:18;35.40;;;15.07;;
66581;SDS011;53438;48.898;2.308;2022-12-16T18:04:22;32.40;;;14.97;;
66581;SDS011;53438;48.898;2.308;2022-12-16T18:07:07;28.52;;;12.88;;
66581;SDS011;53438;48.898;2.308;2022-12-16T18:09:50;35.22;;;15.68;;
66581;SDS011;53438;48.898;2.308;2022-12-16T18:12:34;37.08;;;15.43;;
66581;SDS011;53438;48.898;2.308;2022-12-16T18:15:18;36.45;;;15.32;;
66581;SDS011;53438;48.898;2.308;2022-12-16T18:18:13;34.87;;;15.03;;
66581;SDS011;53438;48.898;2.308;2022-12-16T18:21:06;31.70;;;14.80;;
66581;SDS011;53438;48.898;2.308;2022-12-16T18:23:52;33.58;;;14.38;;
66581;SDS011;53438;48.898;2.308;2022-12-16T18:26:36;32.15;;;14.63;;
66581;SDS011;53438;48.898;2.308;2022-12-16T18:29:20;34.80;;;14.77;;
66581;SDS011;53438;48.898;2.308;2022-12-16T18:32:03;32.77;;;13.30;;
66581;SDS011;53438;48.898;2.308;2022-12-16T18:34:58;37.30;;;13.98;;
66581;SDS011;53438;48.898;2.308;2022-12-16T18:37:42;35.38;;;15.23;;
66581;SDS011;53438;48.898;2.308;2022-12-16T18:40:25;31.67;;;14.45;;
66581;SDS011;53438;48.898;2.308;2022-12-16T18:43:09;36.00;;;14.40;;
66581;SDS011;53438;48.898;2.308;2022-12-16T18:45:56;33.30;;;14.77;;
66581;SDS011;53438;48.898;2.308;2022-12-16T18:48:40;34.10;;;14.70;;
66581;SDS011;53438;48.898;2.308;2022-12-16T18:51:25;33.88;;;15.32;;
66581;SDS011;53438;48.898;2.308;2022-12-16T18:54:09;37.50;;;16.52;;
66581;SDS011;53438;48.898;2.308;2022-12-16T18:56:54;39.30;;;16.80;;
66581;SDS011;53438;48.898;2.308;2022-12-16T18:59:57;33.77;;;15.03;;
66581;SDS011;53438;48.898;2.308;2022-12-16T19:02:41;36.72;;;15.98;;
66581;SDS011;53438;48.898;2.308;2022-12-16T19:05:25;37.15;;;15.70;;
66581;SDS011;53438;48.898;2.308;2022-12-16T19:08:09;38.22;;;15.05;;
66581;SDS011;53438;48.898;2.308;2022-12-16T19:10:56;38.67;;;14.85;;
66581;SDS011;53438;48.898;2.308;2022-12-16T19:13:40;38.87;;;14.70;;
66581;SDS011;53438;48.898;2.308;2022-12-16T19:16:24;38.65;;;16.27;;
66581;SDS011;53438;48.898;2.308;2022-12-16T19:19:08;39.70;;;17.13;;
66581;SDS011;53438;48.898;2.308;2022-12-16T19:21:52;41.42;;;16.58;;
66581;SDS011;53438;48.898;2.308;2022-12-16T19:24:36;43.75;;;15.52;;
66581;SDS011;53438;48.898;2.308;2022-12-16T19:27:20;40.27;;;15.47;;
66581;SDS011;53438;48.898;2.308;2022-12-16T19:30:04;45.80;;;16.98;;
66581;SDS011;53438;48.898;2.308;2022-12-16T19:32:48;42.85;;;17.80;;
66581;SDS011;53438;48.898;2.308;2022-12-16T19:35:32;39.42;;;14.23;;
66581;SDS011;53438;48.898;2.308;2022-12-16T19:38:16;47.60;;;16.67;;
66581;SDS011;53438;48.898;2.308;2022-12-16T19:41:00;42.77;;;15.63;;
66581;SDS011;53438;48.898;2.308;2022-12-16T19:43:44;54.53;;;16.90;;
66581;SDS011;53438;48.898;2.308;2022-12-16T19:46:28;47.90;;;15.82;;
66581;SDS011;53438;48.898;2.308;2022-12-16T19:49:13;41.67;;;14.88;;
66581;SDS011;53438;48.898;2.308;2022-12-16T19:51:56;47.78;;;16.38;;
66581;SDS011;53438;48.898;2.308;2022-12-16T19:54:40;41.47;;;16.57;;
66581;SDS011;53438;48.898;2.308;2022-12-16T19:57:24;47.58;;;18.50;;
66581;SDS011;53438;48.898;2.308;2022-12-16T20:00:09;50.47;;;17.27;;
66581;SDS011;53438;48.898;2.308;2022-12-16T20:02:53;46.15;;;16.27;;
66581;SDS011;53438;48.898;2.308;2022-12-16T20:05:37;48.65;;;17.52;;
66581;SDS011;53438;48.898;2.308;2022-12-16T20:08:21;48.80;;;16.90;;
66581;SDS011;53438;48.898;2.308;2022-12-16T20:11:05;46.42;;;17.08;;
66581;SDS011;53438;48.898;2.308;2022-12-16T20:13:51;41.35;;;17.25;;
66581;SDS011;53438;48.898;2.308;2022-12-16T20:16:36;46.22;;;15.25;;
66581;SDS011;53438;48.898;2.308;2022-12-16T20:19:31;38.80;;;15.43;;
66581;SDS011;53438;48.898;2.308;2022-12-16T20:22:15;46.27;;;16.40;;
66581;SDS011;53438;48.898;2.308;2022-12-16T20:25:07;44.00;;;14.95;;
66581;SDS011;53438;48.898;2.308;2022-12-16T20:27:51;44.88;;;15.98;;
66581;SDS011;53438;48.898;2.308;2022-12-16T20:30:35;49.15;;;17.27;;
66581;SDS011;53438;48.898;2.308;2022-12-16T20:33:19;50.28;;;16.85;;
66581;SDS011;53438;48.898;2.308;2022-12-16T20:36:03;51.40;;;18.10;;
66581;SDS011;53438;48.898;2.308;2022-12-16T20:38:47;52.65;;;18.45;;
66581;SDS011;53438;48.898;2.308;2022-12-16T20:41:31;50.88;;;17.08;;
66581;SDS011;53438;48.898;2.308;2022-12-16T20:44:15;43.47;;;17.63;;
66581;SDS011;53438;48.898;2.308;2022-12-16T20:46:59;52.93;;;18.00;;
66581;SDS011;53438;48.898;2.308;2022-12-16T20:49:43;53.80;;;16.45;;
66581;SDS011;53438;48.898;2.308;2022-12-16T20:52:27;47.80;;;17.25;;
66581;SDS011;53438;48.898;2.308;2022-12-16T20:55:11;49.17;;;16.98;;
66581;SDS011;53438;48.898;2.308;2022-12-16T20:57:55;51.42;;;17.80;;
66581;SDS011;53438;48.898;2.308;2022-12-16T21:00:39;51.03;;;18.00;;
66581;SDS011;53438;48.898;2.308;2022-12-16T21:03:23;44.85;;;16.65;;
66581;SDS011;53438;48.898;2.308;2022-12-16T21:06:07;53.20;;;18.30;;